Immagine casuale
Testata Regione Lazio ARSIAL SIARL

Ultima Misura Rilevata

Temperatura, Umidità, Pioggia, Pressione Radiazione Solare, Venti, Evapotraspirazione, ecc.
Temperature diurne e notturne Direzione vento Legenda
Prov Stazione Data TMin TMed TMax UMed Pioggia PMed
FR ALATRI Basciano 13/08/2018 19,6 26,4 36,5 58 0 1.013
FR ALVITO Az. Ist. S. Benedetto 13/08/2018 14,6 23,4 31,4 72 0 1.015
FR ANAGNI La Gloria 13/08/2018 15,5 24,2 32,3 74 0 1.013
FR ARPINO Vigne Piane 13/08/2018 19,5 24,8 33,7 63 0 1.012
FR BOVILLE ERNICA Sasso 13/08/2018 18,1 26,2 35,3 58 0 1.014
FR ESPERIA Modale 13/08/2018 16,3 25,3 35,8 66 0 1.011
FR PASTENA Acero 13/08/2018 14 24,2 33,3 72 0 1.013
FR PIGLIO Civitella 13/08/2018 15,4 23,6 33,3 73 0 1.023
FR PONTECORVO Melfi di Sotto 13/08/2018 16 25,5 35,7 72 0 ----
FR S. ELIA FIUMERAPIDO Portella 13/08/2018 18 25,8 35,1 65 0 1.013
FR S. GIORGIO A LIRI Porto 13/08/2018 16,5 24,9 34,9 77 0 1.015
FR SGURGOLA Campo Lungo 13/08/2018 14,8 24,7 34 71 0 ----
FR VALLECORSA Serbatoio comunale 13/08/2018 19,8 24,5 31,9 67 0 1.016
LT APRILIA Le Ferriere 13/08/2018 19,1 25,8 32,9 77 0 1.014
LT CISTERNA B.go Carso 13/08/2018 17,3 24,7 31,2 86 0,1 ----
LT CISTERNA Doganella di Ninfa 13/08/2018 17,7 25,6 33,9 73 0 1.014
LT CORI Portone 13/08/2018 18,8 26,2 33,3 66 0 1.014
LT FONDI Capratica 13/08/2018 18 25,7 32,5 78 0 1.013
LT FORMIA Loc. Gianola 13/08/2018 18,2 25,4 30,8 77 0 ----
LT ITRI Valle Quercia 13/08/2018 22 25,7 30,9 70 0 1.013
LT MAENZA Casacotta 13/08/2018 18,1 25,7 32,7 70 0 1.012
LT MINTURNO Pulcherini 13/08/2018 21,9 26,3 32 72 0 1.013
LT PONTINIA Cotarda 13/08/2018 N.D. N.D. N.D. N.D. N.D. 1.015
LT SABAUDIA Acquaviva 13/08/2018 18,2 25,5 31,7 77 0 1.014
LT SONNINO Frasso 13/08/2018 22,3 28 35,9 65 0 1.013
RI ACCUMOLI Terracino 13/08/2018 16,2 20,2 24,8 66 0 1.014
RI BORGOVELINO Ponte Basso 13/08/2018 14,7 22,2 31,9 71 0 1.014
RI CANTALUPO S. Francesco 13/08/2018 17,9 24,7 31,2 77 0 ----
RI CASTEL DI TORA Monte di Tora 13/08/2018 14,5 22,4 32,6 74 0 1.017
RI CASTELNUOVO FARFA C. Spadone 13/08/2018 18,8 24,8 31,9 74 0 ----
RI CONFIGNI Portella 13/08/2018 20,6 26,2 31,5 76 0,2 1.012
RI FARA SABINA Canneto 13/08/2018 20,3 26,3 34,1 69 0 1.019
RI FARA SABINA Sant'Andrea 13/08/2018 19,9 25,9 32,2 72 0 ----
RI MONTELEONE S. Prato Camino 13/08/2018 16,2 23,2 32 76 0 1.014
RI MONTOPOLI IN SABINA Colle Arcone 13/08/2018 20,1 25,3 31,7 80 0 ----
RI MONTOPOLI IN SABINA Villa Caprola 13/08/2018 19,8 26,7 34 83 0 ----
RI POGGIO CATINO Pastine 13/08/2018 19,5 25,4 31 84 0 ----
RI POGGIO NATIVO Casali 13/08/2018 18,2 24 30 80 0 ----
RI RIETI Piana di Rieti 13/08/2018 N.D. N.D. N.D. N.D. N.D. N.D.
RI SCANDRIGLIA Ponticelli 13/08/2018 18 24,2 30,6 81 0 ----
RM AGOSTA La Cisterna 13/08/2018 14,5 22,8 33,9 72 0 1.016
RM BRACCIANO Prato Pianciano 13/08/2018 18,2 25,4 34,4 77 0 1.011
RM CANALE MONTERANO Monte Virginio 13/08/2018 15,4 23 32,3 81 0 1.013
RM CERVETERI Campo di Mare 13/08/2018 20,6 26,2 30,1 73 0 ----
RM CIVITELLA S.PAOLO Le Cese 13/08/2018 19,1 25,1 33 77 0 1.016
RM FIUMICINO Maccarese 13/08/2018 19,6 26,3 30,9 80 0 1.013
RM FIUMICINO Testa di Lepre 13/08/2018 20,7 26,6 33,1 78 0 ----
RM FORMELLO Perazzeta 13/08/2018 20,2 25,8 31,9 75 0 ----
RM FRASCATI Prata Porci 13/08/2018 19,1 26,3 33,7 74 0 1.014
RM GENAZZANO Coop. La Sonnina 13/08/2018 17 24,5 31,8 69 0 1.014
RM GROTTAFERRATA Valle Marciana 13/08/2018 19,1 25,5 32,8 70 0 1.013
RM LICENZA Colle Franco 13/08/2018 15,1 22,5 31,6 73 0 1.013
RM MARCELLINA V. Campetella 13/08/2018 18,5 25,6 32,1 77 0 ----
RM MARINO Gotto d'Oro 13/08/2018 21,1 26,6 32,6 78 0 1.013
RM MONTECOMPATRI Colle Mattia 13/08/2018 19,2 25,7 33,2 74 0 1.014
RM MONTECOMPATRI Pantano Borghese 13/08/2018 N.D. N.D. N.D. N.D. N.D. 1.016
RM MONTELIBRETTI Bruciati 13/08/2018 18,8 26,1 33,7 73 0 ----
RM MONTEPORZIO Camaldoli 13/08/2018 15,8 22,4 29,4 81 0,2 1.014
RM MONTEROTONDO Grotta Marozza 13/08/2018 19,4 26,1 33,1 71 0 1.014
RM PALOMBARA Fonte Grande 13/08/2018 17,1 24,7 32,9 69 0 ----
RM ROMA Capocotta 13/08/2018 20 25 29,7 84 0 ----
RM ROMA Ponte di Nona 13/08/2018 20,9 27,1 33,9 76 0 1.013
RM ROMA Via Lanciani 38 13/08/2018 22,8 27,7 32,3 70 0 1.014
RM S. GREGORIO C. Faustiniano 13/08/2018 18,6 25,1 33,5 66 0 1.016
RM VELLETRI Cantina Sperimentale 13/08/2018 17,8 25,1 34,2 68 0 1.013
RM VELLETRI Prato Lungo 13/08/2018 20 26,7 33,7 68 0 ----
RM ZAGAROLO Santa Apollara 13/08/2018 19,3 25,4 32,2 73 0 ----
VT ACQUAPENDENTE Falconiera 13/08/2018 15 22,9 31 80 0,4 1.018
VT BAGNOREGIO Castell Cellesi 13/08/2018 17,6 23 29,7 71 0,2 ----
VT BASSANO R. Piano Mola 13/08/2018 17,9 23,7 32,3 82 0,2 1.012
VT BLERA Puntoni 13/08/2018 17,8 24,6 30,6 78 63 1.013
VT BOLSENA Capone 13/08/2018 18,5 25,6 35 75 0 1.018
VT BOLSENA Rentica 13/08/2018 17,9 24,1 30,5 76 0 ----
VT CANINO Diga Timone 13/08/2018 18,3 24,7 32,3 78 16,4 1.013
VT CANINO Pianacce 13/08/2018 17,9 24,7 31 79 13,4 1.014
VT CANINO San Valeriano 13/08/2018 18,8 24,5 30 79 0,8 ----
VT CELLENO Acquaforte 13/08/2018 17,2 23,9 30,8 82 0,6 ----
VT CORCHIANO Pantalone 13/08/2018 16,1 24 33,8 80 1 1.012
VT FARNESE Gressa 13/08/2018 N.D. N.D. N.D. N.D. N.D. ----
VT FARNESE Pian di Sala 13/08/2018 13 21,9 29,7 84 1,3 ----
VT GROTTE DI CASTRO Borghetto 13/08/2018 16,5 24,1 31,6 78 0,6 1.012
VT GROTTE DI CASTRO Purgatorio 13/08/2018 15,7 23,4 32,7 80 0,2 1.018
VT LATERA Centro Florovivaistico 13/08/2018 13,1 23 31,7 72 1,4 1.011
VT MONTALTO Le Murelle 13/08/2018 20,3 26 30,7 78 0,2 1.014
VT MONTALTO Pescia Romana 13/08/2018 20 26,2 30,6 77 34,3 1.013
VT MONTEFIASCONE Commenda 13/08/2018 19,1 24,6 31,3 81 1,7 ----
VT RONCIGLIONE Ponterotto 13/08/2018 17,1 24,1 31,4 73 1,4 ----
VT SORIANO CIMINO Pantane 13/08/2018 14,8 23,3 32,1 78 0,8 1.013
VT SORIANO CIMINO Poggio di Chia 13/08/2018 15,7 23,7 31,6 80 1,2 ----
VT TARQUINIA Portaccia 13/08/2018 19,7 26,8 31,8 77 0 ----
VT TUSCANIA Montebello 13/08/2018 20,2 25 29,7 76 0,2 ----
VT VETRALLA Marchionato 13/08/2018 18,7 24,4 30,2 82 9,9 ----
VT VITERBO Pisello 13/08/2018 19 24,4 30,1 80 0,6 ----
N.D. = Dati Non Disponibili
---- = Sensore non presente

Le misure esposte sono grezze, ovvero non sono state validate